Bookmark and Share
Track history (hours):
 

S 386 Casilo

Last reported at 2014-Apr-18 17:33 UTC. Time now 2014-Apr-21 10:19 UTC.
Position N 57°51' E 010°43'.

Length 24 m.

Type: Fishing. MMSI: 219948000.

NotesDate/timePositionNaut miles runAvg speedWind from/ knotsBaromVisibWave heightAir tempDewpointWater temp
2014-Apr-18 17:33N 57°51' E 010°43'8 8.3
2014-Apr-18 16:33N 57°43' E 010°39'2 1.2
2014-Apr-18 15:11N 57°43' E 010°35'0 0.0
2014-Apr-18 14:32N 57°43' E 010°35'0 0.0
2014-Apr-18 13:32N 57°43' E 010°35'0 0.0
2014-Apr-18 10:32N 57°43' E 010°35'0 0.0
2014-Apr-18 09:32N 57°43' E 010°35'0 0.0
2014-Apr-18 06:32N 57°43' E 010°35'0 0.0
2014-Apr-18 05:32N 57°43' E 010°35'0 0.0
2014-Apr-18 04:32N 57°43' E 010°35'0 0.0
2014-Apr-18 02:32N 57°43' E 010°35'0 0.0
2014-Apr-18 01:32N 57°43' E 010°35'0 0.0
2014-Apr-18 00:26N 57°43' E 010°35'0 0.0
2014-Apr-17 21:32N 57°43' E 010°35'0 0.0
2014-Apr-17 20:32N 57°43' E 010°35'0 0.0
2014-Apr-17 17:32N 57°43' E 010°35'0 0.0
2014-Apr-17 16:32N 57°43' E 010°35'0 0.0
2014-Apr-17 15:32N 57°43' E 010°35'0 0.0
2014-Apr-17 13:17N 57°43' E 010°35'0 0.0
2014-Apr-17 12:26N 57°43' E 010°35'0 0.0
2014-Apr-17 11:29N 57°43' E 010°35'0 0.0
2014-Apr-17 08:23N 57°43' E 010°35'0 0.0
2014-Apr-17 07:32N 57°43' E 010°35'0 0.0
2014-Apr-17 04:32N 57°43' E 010°35'0 0.0
2014-Apr-17 03:32N 57°43' E 010°35'0 0.0
2014-Apr-17 02:32N 57°43' E 010°35'0 0.0
2014-Apr-17 00:14N 57°43' E 010°35'0 0.0
2014-Apr-16 23:32N 57°43' E 010°35'0 0.0
2014-Apr-16 22:32N 57°43' E 010°35'0 0.0
2014-Apr-16 19:32N 57°43' E 010°35'0 0.0
2014-Apr-16 18:29N 57°43' E 010°35'0 0.0
2014-Apr-16 15:32N 57°43' E 010°35'0 0.0
2014-Apr-16 14:32N 57°43' E 010°35'0 0.0
2014-Apr-16 13:32N 57°43' E 010°35'0 0.1
2014-Apr-16 11:33N 57°43' E 010°36'0 0.0
2014-Apr-16 10:33N 57°43' E 010°36'6 5.5
2014-Apr-16 09:33N 57°46' E 010°45'9 8.6
2014-Apr-16 08:32N 57°54' E 010°52'9 8.7
2014-Apr-16 07:32N 58°02' E 010°58'21 6.4
2014-Apr-16 04:15N 58°21' E 011°14'6 8.3
2014-Apr-16 03:31N 58°23' E 011°03'9 9.2
2014-Apr-16 02:33N 58°29' E 010°50'12 9.3
2014-Apr-16 01:19N 58°37' E 010°34'  
2014-Apr-10 21:33N 57°56' E 010°42'9 9.2
2014-Apr-10 20:33N 57°47' E 010°43'5 5.3
2014-Apr-10 19:33N 57°43' E 010°36'0 0.2
2014-Apr-10 18:32N 57°43' E 010°36'0 0.0
2014-Apr-10 15:32N 57°43' E 010°36'0 0.0
2014-Apr-10 14:29N 57°43' E 010°36'0 0.0
2014-Apr-10 11:29N 57°43' E 010°36'5 5.4
2014-Apr-10 10:33N 57°47' E 010°43'9 9.3
2014-Apr-10 09:33N 57°56' E 010°39'  

Dump ship's entire track history

sailing weather and tide predictions

S 386 Casilo — OZZP — position and weather